Bookmark and Share
Track history (hours):
 

Daihatsumaru

Last reported at 2014-Apr-24 03:33 UTC. Time now 2014-Apr-24 04:02 UTC.
Position N 34°37' E 135°15'.

Length 106 m; draft 4.5 m.

Type: Cargo ship. MMSI: 431000701.

NotesDate/timePositionNaut miles runAvg speedWind from/ knotsBaromVisibWave heightAir tempDewpointWater temp
2014-Apr-24 03:33N 34°37' E 135°15'9 7.9
2014-Apr-24 02:28N 34°41' E 135°23'0 0.0
2014-Apr-24 01:28N 34°41' E 135°23'0 0.0
2014-Apr-24 00:28N 34°41' E 135°23'0 0.0
2014-Apr-23 23:28N 34°41' E 135°23'0 0.1
2014-Apr-23 22:26N 34°41' E 135°23'4 4.0
2014-Apr-23 21:31N 34°39' E 135°19'0 0.0
2014-Apr-23 20:29N 34°39' E 135°19'7 7.8
2014-Apr-23 19:33N 34°35' E 135°13'1212.3
2014-Apr-23 18:33N 34°37' E 134°58'4 0.1
2014-Apr-22 05:07N 34°35' E 134°53'815.2
2014-Apr-22 04:33N 34°36' E 135°04'1514.7
2014-Apr-22 03:33N 34°40' E 135°21'3 1.9
2014-Apr-22 02:13N 34°41' E 135°23'0 0.1
2014-Apr-22 01:31N 34°41' E 135°23'0 0.0
2014-Apr-22 00:31N 34°41' E 135°23'0 0.0
2014-Apr-21 23:19N 34°41' E 135°23'1 0.7
2014-Apr-21 22:33N 34°41' E 135°23'2 1.7
2014-Apr-21 21:33N 34°40' E 135°21'0 0.0
2014-Apr-21 20:33N 34°40' E 135°21'1111.1
2014-Apr-21 19:34N 34°35' E 135°09'1313.1
2014-Apr-21 18:33N 34°34' E 134°53'  
2014-Apr-18 05:32N 34°37' E 134°56'1212.6
2014-Apr-18 04:33N 34°36' E 135°11'1210.7
2014-Apr-18 03:28N 34°41' E 135°23'0 0.0
2014-Apr-18 01:22N 34°41' E 135°23'0 0.0
2014-Apr-17 23:28N 34°41' E 135°23'2 2.1
2014-Apr-17 22:32N 34°40' E 135°21'0 0.4
2014-Apr-17 21:19N 34°40' E 135°21'0 0.0
2014-Apr-17 20:25N 34°40' E 135°21'0 0.0
2014-Apr-17 19:33N 34°40' E 135°21'1111.5
2014-Apr-17 18:33N 34°35' E 135°08'1615.6
2014-Apr-17 17:33N 34°33' E 134°49'4 0.1
2014-Apr-16 05:21N 34°35' E 134°54'910.7
2014-Apr-16 04:33N 34°36' E 135°04'1414.3
2014-Apr-16 03:33N 34°40' E 135°21'3 2.4
2014-Apr-16 02:29N 34°41' E 135°23'0 0.0
2014-Apr-16 01:29N 34°41' E 135°23'0 0.0
2014-Apr-16 00:29N 34°41' E 135°23'0 0.0
2014-Apr-15 23:23N 34°41' E 135°23'1 1.5
2014-Apr-15 22:33N 34°41' E 135°22'1 1.0
2014-Apr-15 21:27N 34°40' E 135°21'0 0.0
2014-Apr-15 20:27N 34°40' E 135°21'0 0.0
2014-Apr-15 19:33N 34°40' E 135°21'4 3.7
2014-Apr-15 18:34N 34°37' E 135°18'1614.9
2014-Apr-15 17:31N 34°37' E 134°59'  

Dump ship's entire track history

sailing weather and tide predictions

Daihatsumaru — JD2764 — position and weather